INFORMAÇÕES METEOROLÓGICAS
METAR FOR KCXP
ADDS - METARS form results

(0333 UTC 19 September 2018)
Data provider http://aviationweather.gov/metar/data/
 
METAR text: KCXP 190315Z AUTO 26006KT 10SM CLR 20/M02 A2996 RMK AO2
Conditions at: KCXP (CARSON CITY , NV, US) observed 0315 UTC 19 September 2018
Temperature: 20.0°C (68°F)
Dewpoint: -2.0°C (28°F) [RH = 23%]
Pressure (altimeter): 29.96 inches Hg (1014.6 mb)
Winds: from the W (260 degrees) at 7 MPH (6 knots; 3.1 m/s)
Visibility: 10 or more miles (16+ km)
Ceiling: at least 12,000 feet AGL
Clouds: sky clear below 12,000 feet AGL
Weather: automated observation with no human augmentation;
there may or may not be significant weather present at this time

METAR text: KCXP 190255Z AUTO 30005KT 10SM CLR 20/M03 A2996 RMK AO2
Conditions at: KCXP (CARSON CITY , NV, US) observed 0255 UTC 19 September 2018
Temperature: 20.0°C (68°F)
Dewpoint: -3.0°C (27°F) [RH = 21%]
Pressure (altimeter): 29.96 inches Hg (1014.6 mb)
Winds: from the WNW (300 degrees) at 6 MPH (5 knots; 2.6 m/s)
Visibility: 10 or more miles (16+ km)
Ceiling: at least 12,000 feet AGL
Clouds: sky clear below 12,000 feet AGL
Weather: automated observation with no human augmentation;
there may or may not be significant weather present at this time

METAR text: KCXP 190235Z AUTO 29003KT 10SM CLR 20/M03 A2995 RMK AO2
Conditions at: KCXP (CARSON CITY , NV, US) observed 0235 UTC 19 September 2018
Temperature: 20.0°C (68°F)
Dewpoint: -3.0°C (27°F) [RH = 21%]
Pressure (altimeter): 29.95 inches Hg (1014.3 mb)
Winds: from the WNW (290 degrees) at 3 MPH (3 knots; 1.5 m/s)
Visibility: 10 or more miles (16+ km)
Ceiling: at least 12,000 feet AGL
Clouds: sky clear below 12,000 feet AGL
Weather: automated observation with no human augmentation;
there may or may not be significant weather present at this time

Forecast for: KCXP (CARSON CITY , NV, US)
Text: KCXP 182320Z 1900/1924 28010G18KT P6SM SKC
Forecast period: 0000 to 0300 UTC 19 September 2018
Forecast type: FROM: standard forecast or significant change
Winds: from the W (280 degrees) at 12 MPH (10 knots; 5.1 m/s)
gusting to 21 MPH (18 knots; 9.3 m/s)
Visibility: 6 or more miles 10+ km)
Clouds: clear skies
Weather: no significant weather forecast for this period
Text: FM190300 VRB03KT P6SM SKC
Forecast period: 0300 to 2200 UTC 19 September 2018
Forecast type: FROM: standard forecast or significant change
Winds: variable direction winds at 3 MPH (3 knots; 1.5 m/s)
Visibility: 6 or more miles 10+ km)
Clouds: clear skies
Weather: no significant weather forecast for this period
Text: FM192200 28010G18KT P6SM SKC
Forecast period: 2200 UTC 19 September 2018 to 0000 UTC 20 September 2018
Forecast type: FROM: standard forecast or significant change
Winds: from the W (280 degrees) at 12 MPH (10 knots; 5.1 m/s)
gusting to 21 MPH (18 knots; 9.3 m/s)
Visibility: 6 or more miles 10+ km)
Clouds: clear skies
Weather: no significant weather forecast for this period

 MAPA DO AEROPORTO

 INFORMAÇÕES DA PISTA
Pista 09 Tamanho da pista 5906 ft Largura da pista 75 ft
Elevação da pista 4697 ft Ranhura da pista 0 ft Proa da pista 107
Pista 27 Tamanho da pista 5906 ft Largura da pista 75 ft
Elevação da pista 4686 ft Ranhura da pista 0 ft Proa da pista 287

 FREQUÊNCIAS DO AEROPORTO
Tipo AWOS Nome AWOS 3 Frequência 119.925 MHZ
Tipo UNIC Nome CTAF/UNICO Frequência 123 MHZ

 AUXÍLIOS DE NAVEGAÇÃO PRÓXIMOS AO AEROPORTO





Powered by Virtual Airlines Manager [v2.6.2]